Time;durP1;ratioP1;P1;durP2;ratioP2;P2;SDS_P1;SDS_P2;PMS_P1;PMS_P2;Temp;Humidity;BMP_temperature;BMP_pressure;BME280_temperature;BME280_humidity;BME280_pressure;Samples;Min_cycle;Max_cycle;Signal;HPM_P1;HPM_P2
2021/09/21 04:17:14;;;;;;;8.88;7.97;;;;;;;12.05;83.27;99568.00;5156948;23;20392;-72
2021/09/21 04:19:39;;;;;;;9.80;7.97;;;;;;;11.92;83.22;99566.41;4995292;28;20045;-72
2021/09/21 04:22:06;;;;;;;9.02;8.00;;;;;;;12.02;84.32;99568.03;4995352;28;20029;-72
2021/09/21 04:24:33;;;;;;;11.52;8.05;;;;;;;12.06;83.42;99564.53;4995407;28;20034;-72
2021/09/21 04:26:59;;;;;;;11.43;8.68;;;;;;;11.92;84.20;99561.22;4994467;28;20026;-72
2021/09/21 04:29:24;;;;;;;11.32;8.60;;;;;;;11.93;84.25;99573.31;4980301;28;20503;-72
2021/09/21 04:31:52;;;;;;;11.73;8.07;;;;;;;11.92;84.59;99576.81;4989952;28;20395;-72
2021/09/21 04:34:17;;;;;;;9.35;8.27;;;;;;;11.86;84.53;99576.88;4980701;28;20030;-72
2021/09/21 04:36:43;;;;;;;10.43;8.48;;;;;;;11.82;85.01;99580.38;4978394;28;20411;-72
2021/09/21 04:39:08;;;;;;;8.30;7.15;;;;;;;11.96;85.56;99588.03;4976541;28;20020;-72
2021/09/21 04:41:34;;;;;;;9.57;7.65;;;;;;;11.99;85.35;99593.16;4976465;28;20034;-71
2021/09/21 04:44:00;;;;;;;12.90;8.40;;;;;;;11.85;84.01;99595.94;4977100;28;20018;-72
2021/09/21 04:46:26;;;;;;;8.35;7.28;;;;;;;11.82;83.59;99596.81;4975159;28;20070;-71
2021/09/21 04:48:51;;;;;;;10.20;7.55;;;;;;;11.81;83.66;99600.25;4977100;28;20039;-72
2021/09/21 04:51:17;;;;;;;9.50;7.90;;;;;;;11.90;84.45;99603.69;4974788;28;20029;-72
2021/09/21 04:53:42;;;;;;;10.10;8.23;;;;;;;11.76;84.92;99611.56;4978042;28;20089;-72
2021/09/21 04:56:07;;;;;;;11.55;9.38;;;;;;;11.80;84.71;99615.88;4988484;28;20038;-72
2021/09/21 04:58:33;;;;;;;9.55;8.25;;;;;;;11.81;84.25;99621.03;4979754;28;20022;-71
2021/09/21 05:00:58;;;;;;;12.32;8.75;;;;;;;11.84;85.50;99635.72;4984136;28;20380;-72
2021/09/21 05:03:23;;;;;;;10.23;7.80;;;;;;;11.87;84.75;99638.31;4981919;28;20030;-71
2021/09/21 05:05:49;;;;;;;9.85;8.55;;;;;;;11.91;85.25;99642.63;4983894;28;20029;-71
2021/09/21 05:08:14;;;;;;;9.48;7.93;;;;;;;12.08;85.54;99634.63;4984564;28;20441;-71
2021/09/21 05:10:40;;;;;;;9.80;8.35;;;;;;;12.44;85.06;99643.78;4980628;28;20029;-71
2021/09/21 05:13:05;;;;;;;12.57;8.02;;;;;;;12.18;84.13;99648.38;4974626;28;20440;-71
2021/09/21 05:15:30;;;;;;;8.68;7.78;;;;;;;12.12;84.38;99646.72;4977982;28;20033;-71
2021/09/21 05:17:56;;;;;;;10.43;8.68;;;;;;;12.01;85.49;99654.63;4987847;28;20018;-72
2021/09/21 05:20:21;;;;;;;11.50;8.38;;;;;;;12.04;85.37;99657.22;4985104;28;20035;-71
2021/09/21 05:22:53;;;;;;;12.18;8.88;;;;;;;11.99;85.39;99661.59;4983280;28;20023;-71
2021/09/21 05:25:19;;;;;;;9.98;8.35;;;;;;;12.02;85.87;99665.88;4977095;28;20207;-71
2021/09/21 05:27:45;;;;;;;13.45;8.70;;;;;;;11.89;85.25;99670.31;4978838;28;20029;-71
2021/09/21 05:30:12;;;;;;;12.75;9.13;;;;;;;11.94;85.08;99673.75;4973940;28;20030;-72
2021/09/21 05:32:37;;;;;;;9.57;7.85;;;;;;;12.01;84.66;99680.59;4983886;28;20096;-71
2021/09/21 05:35:03;;;;;;;10.98;9.18;;;;;;;11.97;85.32;99684.09;4978939;28;20475;-71
2021/09/21 05:37:30;;;;;;;12.13;9.43;;;;;;;11.96;85.12;99686.72;4981227;28;20027;-71
2021/09/21 05:39:55;;;;;;;15.38;8.35;;;;;;;11.94;85.24;99686.75;4974769;28;20551;-71
2021/09/21 05:42:21;;;;;;;12.75;9.43;;;;;;;12.04;84.89;99690.97;4980972;28;20118;-71
2021/09/21 05:44:46;;;;;;;12.48;8.30;;;;;;;12.08;84.33;99686.59;4978075;28;20057;-72
2021/09/21 05:47:12;;;;;;;10.23;9.02;;;;;;;12.13;84.65;99694.34;4978512;28;20026;-71
2021/09/21 05:49:38;;;;;;;11.70;8.70;;;;;;;12.13;82.90;99689.16;4981660;28;20069;-71
2021/09/21 05:52:04;;;;;;;11.52;7.65;;;;;;;12.27;81.45;99697.66;4973927;28;20026;-71
2021/09/21 05:54:30;;;;;;;10.50;8.27;;;;;;;12.27;80.27;99695.06;4985015;28;20377;-71
2021/09/21 05:56:55;;;;;;;10.52;7.78;;;;;;;12.39;79.01;99692.34;4978035;28;20022;-71
2021/09/21 05:59:20;;;;;;;12.40;7.47;;;;;;;12.34;79.75;99688.94;4980735;28;20046;-71
2021/09/21 06:01:45;;;;;;;12.95;7.07;;;;;;;12.54;79.68;99692.19;4977086;28;20034;-71
2021/09/21 06:04:12;;;;;;;14.45;8.75;;;;;;;12.64;78.60;99686.88;4980526;28;20054;-71
2021/09/21 06:06:38;;;;;;;11.77;8.13;;;;;;;13.11;77.63;99689.75;4976163;28;20476;-72
2021/09/21 06:09:03;;;;;;;10.38;8.23;;;;;;;13.42;76.12;99672.84;4978037;28;20037;-71
2021/09/21 06:11:32;;;;;;;11.85;6.88;;;;;;;14.73;71.87;99675.75;4976840;28;20025;-72
2021/09/21 06:13:59;;;;;;;8.25;6.45;;;;;;;15.97;66.22;99675.56;4973318;28;20026;-71
2021/09/21 06:16:25;;;;;;;7.18;6.47;;;;;;;17.07;62.86;99672.53;4978983;28;20564;-72
2021/09/21 06:18:50;;;;;;;9.10;6.50;;;;;;;18.28;58.49;99676.50;4982376;28;20037;-72
2021/09/21 06:21:16;;;;;;;6.03;5.43;;;;;;;19.04;55.82;99683.34;4978884;28;20022;-72
2021/09/21 06:23:41;;;;;;;8.45;5.68;;;;;;;20.07;52.26;99676.66;4978068;28;20073;-72
2021/09/21 06:26:06;;;;;;;9.85;5.20;;;;;;;21.22;49.30;99681.13;4974525;28;20488;-72
2021/09/21 06:28:32;;;;;;;9.85;5.90;;;;;;;20.24;50.75;99684.66;4980594;28;20037;-72
2021/09/21 06:30:57;;;;;;;9.07;5.43;;;;;;;20.98;48.29;99682.28;4983819;28;20109;-72
2021/09/21 06:33:24;;;;;;;6.38;5.72;;;;;;;19.76;50.71;99704.22;4986309;28;20026;-72
2021/09/21 06:35:50;;;;;;;7.00;5.10;;;;;;;18.40;54.82;99710.16;4977357;28;20533;-72
2021/09/21 06:38:15;;;;;;;8.38;6.05;;;;;;;17.50;59.44;99718.34;4977807;28;20491;-72
2021/09/21 06:40:41;;;;;;;8.63;6.20;;;;;;;16.67;58.91;99720.75;4975679;28;20029;-71
2021/09/21 06:43:06;;;;;;;6.22;5.65;;;;;;;15.73;63.02;99728.44;4973949;28;20023;-71
2021/09/21 06:45:32;;;;;;;10.35;6.35;;;;;;;15.50;64.97;99732.41;4985501;28;20060;-72
2021/09/21 06:47:57;;;;;;;12.25;6.32;;;;;;;15.50;63.68;99737.63;4973191;28;20480;-71
2021/09/21 06:50:22;;;;;;;9.05;6.40;;;;;;;15.46;65.32;99751.63;4977392;28;20027;-71
2021/09/21 06:52:48;;;;;;;8.07;7.15;;;;;;;15.22;66.33;99746.94;4982114;28;20026;-72
2021/09/21 06:55:13;;;;;;;7.70;6.05;;;;;;;15.14;64.26;99754.97;4983749;28;20156;-72
2021/09/21 06:57:39;;;;;;;8.05;5.90;;;;;;;14.76;64.76;99753.13;4979112;28;20030;-72
2021/09/21 07:00:06;;;;;;;5.40;4.90;;;;;;;14.65;58.94;99751.56;4975911;28;20030;-72
2021/09/21 07:02:32;;;;;;;5.82;5.03;;;;;;;14.60;60.41;99756.03;4977083;28;20110;-71
2021/09/21 07:04:57;;;;;;;6.53;4.78;;;;;;;14.44;58.91;99761.50;4979125;28;20101;-71
2021/09/21 07:07:22;;;;;;;7.22;4.70;;;;;;;14.31;58.06;99761.72;4972474;28;20407;-72
2021/09/21 07:09:48;;;;;;;7.43;4.75;;;;;;;14.58;58.79;99757.78;4978814;28;20027;-71
2021/09/21 07:12:13;;;;;;;4.90;4.40;;;;;;;14.26;59.47;99770.50;4978188;28;20034;-72
2021/09/21 07:14:38;;;;;;;6.30;4.70;;;;;;;15.90;54.89;99760.25;4980157;28;20096;-71
2021/09/21 07:17:03;;;;;;;5.78;4.63;;;;;;;18.14;49.56;99763.53;4978206;28;20031;-72
2021/09/21 07:19:29;;;;;;;5.55;4.15;;;;;;;20.56;44.73;99766.72;4977508;28;20437;-72
2021/09/21 07:21:54;;;;;;;4.85;3.85;;;;;;;21.65;40.60;99776.69;4982031;28;20377;-72
2021/09/21 07:24:19;;;;;;;4.15;3.75;;;;;;;21.33;41.87;99780.00;4974937;28;20027;-72
2021/09/21 07:26:50;;;;;;;5.22;4.00;;;;;;;21.01;43.60;99787.53;4976227;28;20035;-72
2021/09/21 07:29:18;;;;;;;4.93;4.10;;;;;;;20.00;44.99;99791.81;4972746;28;20035;-72
2021/09/21 07:31:44;;;;;;;7.57;3.97;;;;;;;16.34;50.29;99802.75;4978555;28;20022;-72
2021/09/21 07:34:10;;;;;;;5.05;3.95;;;;;;;16.85;50.75;99791.88;4981717;28;20027;-72
2021/09/21 07:36:36;;;;;;;5.88;4.30;;;;;;;16.33;52.74;99801.03;4979236;28;20018;-72
2021/09/21 07:39:01;;;;;;;4.57;4.18;;;;;;;15.94;53.04;99806.31;4978762;28;20030;-72
2021/09/21 07:41:27;;;;;;;5.28;4.63;;;;;;;15.98;53.48;99813.22;4978249;28;20058;-71
2021/09/21 07:43:52;;;;;;;4.95;4.18;;;;;;;15.89;55.43;99811.66;4982106;28;20113;-72
2021/09/21 07:46:18;;;;;;;9.25;4.72;;;;;;;15.67;52.52;99816.53;4974391;28;20110;-72
2021/09/21 07:48:43;;;;;;;12.90;5.10;;;;;;;15.46;54.09;99818.69;4976024;28;20069;-72
2021/09/21 07:51:09;;;;;;;5.97;4.93;;;;;;;15.52;52.26;99819.44;4974147;28;20530;-72
2021/09/21 07:53:34;;;;;;;5.25;4.75;;;;;;;15.25;55.21;99825.22;4984137;28;20468;-72
2021/09/21 07:56:00;;;;;;;5.15;4.13;;;;;;;15.80;52.53;99824.06;4977696;28;20034;-71
2021/09/21 07:58:26;;;;;;;9.32;5.70;;;;;;;15.28;52.70;99819.94;4980788;28;20110;-71
2021/09/21 08:00:54;;;;;;;8.75;5.57;;;;;;;15.55;52.99;99819.34;4981309;28;20188;-71
2021/09/21 08:03:20;;;;;;;6.43;4.90;;;;;;;15.79;51.27;99818.00;4975159;28;20023;-71
2021/09/21 08:05:45;;;;;;;7.22;5.13;;;;;;;16.27;50.59;99814.28;4976137;28;20372;-71
2021/09/21 08:08:11;;;;;;;5.00;4.50;;;;;;;17.00;47.65;99816.75;4975469;28;20038;-71
2021/09/21 08:10:36;;;;;;;10.52;8.20;;;;;;;19.87;40.53;99816.88;4978339;28;20033;-72
2021/09/21 08:13:03;;;;;;;5.70;4.60;;;;;;;21.61;37.14;99825.25;4976718;28;20388;-72
2021/09/21 08:15:30;;;;;;;6.90;4.50;;;;;;;22.70;35.79;99817.34;4983138;28;20035;-72
2021/09/21 08:18:00;;;;;;;4.97;4.00;;;;;;;22.44;34.56;99824.81;4982678;28;20038;-72
2021/09/21 08:20:25;;;;;;;3.33;3.03;;;;;;;22.29;35.13;99823.78;4984584;28;20479;-72
2021/09/21 08:22:51;;;;;;;4.03;3.63;;;;;;;18.00;41.56;99844.44;4978176;28;20046;-72
2021/09/21 08:25:18;;;;;;;4.65;3.40;;;;;;;22.09;35.40;99826.50;4981866;28;20541;-72
2021/09/21 08:27:44;;;;;;;3.60;3.28;;;;;;;23.06;32.87;99822.53;4978350;28;20030;-72
2021/09/21 08:30:11;;;;;;;3.88;3.30;;;;;;;23.67;31.34;99837.78;4983889;28;20077;-72
2021/09/21 08:32:36;;;;;;;3.55;3.17;;;;;;;23.57;31.54;99841.84;4981172;28;20034;-72
2021/09/21 08:35:02;;;;;;;4.50;3.00;;;;;;;22.83;32.90;99843.06;4981447;28;20033;-72
2021/09/21 08:37:27;;;;;;;3.65;3.22;;;;;;;20.05;37.60;99853.00;4976209;28;20400;-71
2021/09/21 08:39:53;;;;;;;4.15;3.78;;;;;;;17.28;42.85;99858.78;4986441;28;20383;-72
2021/09/21 08:42:18;;;;;;;5.30;4.00;;;;;;;19.83;39.13;99852.13;4985470;28;20030;-71
2021/09/21 08:44:43;;;;;;;5.20;3.72;;;;;;;21.68;33.76;99839.88;4981602;28;20496;-73
2021/09/21 08:47:09;;;;;;;4.40;3.40;;;;;;;22.59;31.55;99841.69;4975354;28;20026;-72
2021/09/21 08:49:35;;;;;;;18.05;11.52;;;;;;;22.75;33.49;99842.59;4977373;28;20435;-72
2021/09/21 08:52:02;;;;;;;5.43;3.35;;;;;;;24.31;29.99;99846.56;4978984;28;20106;-72
2021/09/21 08:54:27;;;;;;;4.30;3.30;;;;;;;23.93;31.51;99848.72;4976879;28;20029;-73
2021/09/21 08:56:54;;;;;;;3.42;2.97;;;;;;;26.02;26.29;99843.31;4984278;28;20391;-73
2021/09/21 08:59:28;;;;;;;4.05;3.70;;;;;;;19.94;35.98;99863.09;4980477;28;20046;-72
2021/09/21 09:01:53;;;;;;;3.63;3.25;;;;;;;20.15;36.67;99859.59;4978344;28;20030;-73
2021/09/21 09:04:19;;;;;;;3.05;2.80;;;;;;;23.56;31.66;99856.88;4986836;28;20081;-73
2021/09/21 09:06:47;;;;;;;4.57;3.20;;;;;;;23.61;32.21;99859.28;4980849;28;20042;-73
2021/09/21 09:09:19;;;;;;;3.95;3.53;;;;;;;21.67;34.55;99863.69;4974740;28;20127;-73
2021/09/21 09:11:50;;;;;;;3.80;3.13;;;;;;;21.70;33.36;99867.03;4974398;28;20539;-73
2021/09/21 09:14:21;;;;;;;4.25;3.50;;;;;;;19.51;39.68;99894.44;4975611;28;20110;-73
2021/09/21 09:16:51;;;;;;;4.07;3.70;;;;;;;20.87;37.15;99884.78;4974342;28;20039;-73
2021/09/21 09:19:17;;;;;;;3.60;3.30;;;;;;;20.19;36.68;99884.88;4979340;28;20479;-73
2021/09/21 09:21:46;;;;;;;4.43;3.88;;;;;;;21.80;34.52;99873.59;4982948;28;20089;-73
2021/09/21 09:24:15;;;;;;;;;;;;;;;23.14;31.74;99859.16;4974871;28;20023;-73
2021/09/21 09:26:42;;;;;;;;;;;;;;;24.32;29.66;99861.50;4978501;28;19910;-73
2021/09/21 09:29:14;;;;;;;3.90;3.33;;;;;;;24.02;31.58;99874.69;4976358;28;20506;-73
2021/09/21 09:31:42;;;;;;;5.22;3.25;;;;;;;25.43;28.20;99877.06;4979145;28;20033;-73
2021/09/21 09:34:25;;;;;;;5.22;2.55;;;;;;;27.16;27.16;99878.19;4982323;28;20042;-73
2021/09/21 09:36:59;;;;;;;3.40;3.10;;;;;;;28.49;24.50;99872.31;4974340;28;20361;-73
2021/09/21 09:39:29;;;;;;;4.32;2.42;;;;;;;28.87;24.31;99864.94;4974109;28;20025;-73
2021/09/21 09:41:57;;;;;;;3.58;2.55;;;;;;;25.82;27.73;99866.69;4978058;28;20046;-73
2021/09/21 09:44:26;;;;;;;3.67;2.35;;;;;;;25.61;28.11;99865.31;4976970;28;20022;-73
2021/09/21 09:46:56;;;;;;;5.20;3.20;;;;;;;24.26;29.01;99877.75;4977550;28;20027;-73
2021/09/21 09:49:26;;;;;;;3.75;2.90;;;;;;;23.84;30.86;99882.75;4975947;28;20109;-73
2021/09/21 09:51:53;;;;;;;2.72;2.53;;;;;;;24.94;30.00;99870.28;4974235;28;20102;-73
2021/09/21 09:54:19;;;;;;;16.20;4.13;;;;;;;24.15;30.51;99878.38;4981293;28;20415;-73
2021/09/21 09:56:46;;;;;;;17.75;4.65;;;;;;;26.16;27.02;99875.13;4973565;28;20019;-73
2021/09/21 09:59:16;;;;;;;13.02;3.40;;;;;;;24.32;31.04;99880.94;4979186;28;20027;-73
2021/09/21 10:01:44;;;;;;;6.03;2.72;;;;;;;27.56;25.63;99872.78;4973522;28;20029;-73
2021/09/21 10:04:11;;;;;;;5.47;3.25;;;;;;;25.35;29.14;99874.91;4978554;28;20054;-73
2021/09/21 10:06:38;;;;;;;3.38;3.10;;;;;;;29.18;23.99;99871.44;4976249;28;20035;-73
2021/09/21 10:09:03;;;;;;;13.60;3.65;;;;;;;27.83;25.83;99890.41;4978671;28;20018;-73
2021/09/21 10:11:30;;;;;;;6.75;3.55;;;;;;;22.29;32.91;99896.88;4975266;28;20117;-73
2021/09/21 10:13:59;;;;;;;4.22;3.83;;;;;;;23.30;31.30;99887.34;4976485;28;20029;-73
2021/09/21 10:16:25;;;;;;;4.38;3.90;;;;;;;24.31;31.34;99894.25;4979096;28;20026;-73
2021/09/21 10:18:59;;;;;;;3.45;3.15;;;;;;;22.40;33.84;99883.16;4981244;28;20015;-73
2021/09/21 10:21:33;;;;;;;4.32;3.90;;;;;;;22.80;32.35;99896.06;4983366;28;20458;-73
2021/09/21 10:24:03;;;;;;;5.20;3.33;;;;;;;23.36;32.55;99890.63;4974629;28;20014;-73
2021/09/21 10:26:29;;;;;;;3.10;2.80;;;;;;;25.28;28.79;99887.69;4980165;28;20419;-73
2021/09/21 10:28:58;;;;;;;5.38;3.88;;;;;;;22.65;32.31;99893.34;4983644;28;20019;-73
2021/09/21 10:31:24;;;;;;;4.15;3.65;;;;;;;24.26;30.58;99886.56;4979612;28;20023;-77
2021/09/21 10:33:50;;;;;;;4.20;3.80;;;;;;;23.37;31.30;99892.34;4984287;28;20014;-76
2021/09/21 10:36:19;;;;;;;8.40;4.18;;;;;;;23.02;32.14;99897.69;4979359;28;20029;-76
2021/09/21 10:38:52;;;;;;;5.82;3.78;;;;;;;25.51;28.64;99888.09;4981989;28;20042;-76
2021/09/21 10:41:17;;;;;;;3.85;3.17;;;;;;;27.37;27.51;99878.53;4978999;28;20499;-76
2021/09/21 10:43:44;;;;;;;5.18;3.78;;;;;;;23.69;30.79;99888.88;4983421;28;20108;-76
2021/09/21 10:46:12;;;;;;;4.15;3.75;;;;;;;27.94;25.94;99871.84;4982466;28;20022;-76
2021/09/21 10:48:41;;;;;;;5.10;4.07;;;;;;;24.54;30.84;99885.03;4975185;28;20026;-77
2021/09/21 10:51:09;;;;;;;6.47;4.03;;;;;;;27.51;26.13;99884.69;4974720;28;20034;-76
2021/09/21 10:53:36;;;;;;;7.72;3.90;;;;;;;27.67;26.85;99887.97;4981574;28;20030;-76
2021/09/21 10:56:11;;;;;;;8.45;5.53;;;;;;;23.96;31.73;99896.22;4978100;28;20034;-76
2021/09/21 10:58:38;;;;;;;5.55;4.50;;;;;;;27.91;26.28;99883.59;4975368;28;20030;-76
2021/09/21 11:01:05;;;;;;;5.82;4.18;;;;;;;28.74;24.61;99876.66;4972737;28;20468;-76
2021/09/21 11:03:35;;;;;;;4.40;4.00;;;;;;;27.48;26.25;99882.25;4979055;28;20030;-76
2021/09/21 11:06:01;;;;;;;4.05;3.38;;;;;;;29.46;24.82;99885.31;4974150;28;20046;-76
2021/09/21 11:08:32;;;;;;;5.93;3.85;;;;;;;29.34;24.42;99880.91;4981290;28;20472;-77
2021/09/21 11:11:02;;;;;;;6.20;3.33;;;;;;;31.75;22.12;99876.03;4984067;28;20034;-77
2021/09/21 11:13:35;;;;;;;5.00;3.20;;;;;;;29.45;24.51;99881.78;4976454;28;20543;-77
2021/09/21 11:16:03;;;;;;;3.90;3.58;;;;;;;25.97;27.65;99882.59;4974659;28;20080;-76
2021/09/21 11:18:29;;;;;;;4.60;3.53;;;;;;;23.39;32.55;99886.03;4977809;28;20023;-76
2021/09/21 11:21:01;;;;;;;8.30;7.38;;;;;;;22.63;33.18;99880.22;4979978;28;20089;-76
2021/09/21 11:23:33;;;;;;;6.65;4.20;;;;;;;22.65;34.55;99878.34;4978886;28;20045;-72
2021/09/21 11:26:02;;;;;;;5.18;4.68;;;;;;;20.92;36.78;99894.19;4973720;28;20097;-73
2021/09/21 11:28:38;;;;;;;7.10;4.43;;;;;;;20.73;36.87;99888.84;4981886;28;20101;-72
2021/09/21 11:31:04;;;;;;;4.15;3.75;;;;;;;21.87;35.28;99889.16;4976381;28;20030;-72
2021/09/21 11:33:33;;;;;;;6.80;4.82;;;;;;;18.72;40.24;99895.47;4977215;28;20033;-72
2021/09/21 11:36:02;;;;;;;5.35;4.88;;;;;;;18.22;42.63;99887.41;4981626;28;20029;-72
2021/09/21 11:38:30;;;;;;;8.83;5.20;;;;;;;18.95;42.43;99888.56;4978530;28;20030;-73
2021/09/21 11:40:56;;;;;;;10.38;5.20;;;;;;;18.28;42.73;99890.78;4976975;28;20391;-71
2021/09/21 11:43:21;;;;;;;10.18;5.70;;;;;;;18.67;42.28;99897.38;4973329;28;20105;-71
2021/09/21 11:45:49;;;;;;;6.70;6.00;;;;;;;22.29;35.60;99876.59;4975163;28;20031;-71
2021/09/21 11:48:16;;;;;;;6.47;5.88;;;;;;;21.37;35.79;99880.00;4974489;28;20025;-71
2021/09/21 11:50:43;;;;;;;9.80;5.50;;;;;;;19.61;39.79;99895.00;4976712;28;20171;-71
2021/09/21 11:53:11;;;;;;;11.52;5.30;;;;;;;20.09;40.14;99885.31;4980247;28;20022;-71
2021/09/21 11:55:39;;;;;;;4.53;4.13;;;;;;;22.26;37.83;99876.75;4980022;28;20118;-71
2021/09/21 11:58:06;;;;;;;8.60;5.20;;;;;;;21.61;36.10;99871.88;4976119;28;20024;-71
2021/09/21 12:00:37;;;;;;;4.50;4.10;;;;;;;23.96;32.98;99872.41;4984621;28;20018;-71
2021/09/21 12:03:06;;;;;;;4.93;4.05;;;;;;;22.43;34.85;99861.84;4980553;28;20476;-72
2021/09/21 12:05:33;;;;;;;6.18;4.28;;;;;;;22.23;35.60;99865.47;4980951;28;20066;-71
2021/09/21 12:08:01;;;;;;;6.72;5.82;;;;;;;22.93;34.81;99862.00;4987494;28;20499;-71
2021/09/21 12:10:28;;;;;;;5.50;3.70;;;;;;;22.96;35.69;99863.59;4984105;28;20027;-71
2021/09/21 12:13:02;;;;;;;4.75;3.58;;;;;;;20.65;38.54;99869.91;4981917;28;20073;-71
2021/09/21 12:15:29;;;;;;;4.85;4.43;;;;;;;21.72;35.11;99864.34;4978151;28;20033;-71
2021/09/21 12:17:55;;;;;;;5.47;4.10;;;;;;;22.45;35.69;99855.56;4982943;28;20434;-71
2021/09/21 12:20:24;;;;;;;5.22;3.63;;;;;;;22.27;36.35;99859.97;4982182;28;20022;-71
2021/09/21 12:22:53;;;;;;;8.15;4.55;;;;;;;20.74;37.84;99864.25;4986041;28;20029;-71
2021/09/21 12:25:20;;;;;;;;;;;;;;;20.03;41.01;99860.94;4977627;28;20019;-69
2021/09/21 12:27:45;;;;;;;5.00;4.60;;;;;;;19.50;41.50;99860.34;4982107;28;19910;-69
2021/09/21 12:30:11;;;;;;;6.43;4.38;;;;;;;20.87;38.96;99847.91;4986191;28;20037;-67
2021/09/21 12:32:37;;;;;;;4.43;4.03;;;;;;;21.14;38.15;99849.34;4984903;28;20025;-67
2021/09/21 12:35:09;;;;;;;9.00;4.15;;;;;;;20.40;39.87;99853.34;4992698;28;20026;-67
2021/09/21 12:37:39;;;;;;;4.88;4.47;;;;;;;21.11;39.32;99845.97;4982831;28;20506;-67
2021/09/21 12:40:13;;;;;;;4.43;4.03;;;;;;;21.07;38.41;99850.50;4984547;28;20022;-67
2021/09/21 12:42:41;;;;;;;9.68;4.60;;;;;;;20.95;40.12;99856.34;4982336;28;20019;-67
2021/09/21 12:45:08;;;;;;;4.85;3.80;;;;;;;20.50;40.07;99846.81;4983624;28;20023;-67
2021/09/21 12:47:39;;;;;;;4.50;3.85;;;;;;;20.48;39.80;99851.28;4974844;28;20384;-68
2021/09/21 12:50:16;;;;;;;7.32;4.10;;;;;;;21.42;39.96;99853.38;4983893;28;20073;-67
2021/09/21 12:52:59;;;;;;;8.55;4.88;;;;;;;20.76;39.61;99862.38;4978409;28;20081;-67
2021/09/21 12:55:30;;;;;;;6.10;4.68;;;;;;;20.07;40.98;99861.69;4985230;28;20073;-68
2021/09/21 12:57:57;;;;;;;5.55;5.00;;;;;;;19.14;42.62;99868.63;4980238;28;20387;-67
2021/09/21 13:00:23;;;;;;;5.55;5.05;;;;;;;18.58;43.79;99879.28;4984198;28;20060;-67
2021/09/21 13:02:51;;;;;;;7.55;4.78;;;;;;;19.95;41.06;99873.53;4980218;28;20425;-67
2021/09/21 13:05:18;;;;;;;17.83;4.30;;;;;;;20.49;41.56;99869.66;4976056;28;20023;-67
2021/09/21 13:07:44;;;;;;;12.40;5.28;;;;;;;20.52;41.02;99873.94;4976447;28;20037;-68
2021/09/21 13:10:09;;;;;;;23.65;5.95;;;;;;;19.13;42.36;99877.44;4981224;28;20022;-67
2021/09/21 13:12:35;;;;;;;6.70;4.47;;;;;;;20.17;41.17;99872.72;4985537;28;20022;-67
2021/09/21 13:15:00;;;;;;;23.73;5.40;;;;;;;19.09;42.95;99881.06;4981712;28;20105;-67
2021/09/21 13:17:25;;;;;;;9.95;5.15;;;;;;;19.07;43.23;99888.16;4984840;28;20397;-66
2021/09/21 13:19:50;;;;;;;13.63;6.07;;;;;;;19.21;43.30;99880.66;4981092;28;20034;-67
2021/09/21 13:22:16;;;;;;;9.38;5.80;;;;;;;18.55;44.65;99879.38;4983920;28;20014;-67
2021/09/21 13:24:41;;;;;;;30.13;6.38;;;;;;;18.35;45.88;99881.81;4984032;28;20083;-67
2021/09/21 13:27:07;;;;;;;8.50;5.53;;;;;;;18.36;44.77;99876.50;4981457;28;20058;-66
2021/09/21 13:29:32;;;;;;;8.30;5.57;;;;;;;17.63;47.20;99882.19;4979506;28;20037;-66
2021/09/21 13:31:57;;;;;;;11.25;7.43;;;;;;;16.43;49.17;99894.06;4982207;28;20029;-66
2021/09/21 13:34:23;;;;;;;9.73;5.88;;;;;;;17.43;46.29;99874.06;4991285;28;20491;-66
2021/09/21 13:36:48;;;;;;;11.48;6.45;;;;;;;17.15;47.75;99879.19;4978512;28;20063;-66
2021/09/21 13:39:13;;;;;;;7.10;6.40;;;;;;;17.65;46.84;99874.31;4980769;28;20019;-66
2021/09/21 13:41:40;;;;;;;5.65;5.15;;;;;;;17.97;45.95;99873.34;4982613;28;20110;-66
2021/09/21 13:44:05;;;;;;;5.32;4.75;;;;;;;18.45;45.94;99867.47;4979290;28;20022;-66
2021/09/21 13:46:31;;;;;;;6.70;5.15;;;;;;;18.40;44.75;99872.00;4982445;28;20052;-66
2021/09/21 13:48:57;;;;;;;5.18;4.45;;;;;;;18.09;45.97;99875.63;4981986;28;20027;-66
2021/09/21 13:51:22;;;;;;;5.20;4.70;;;;;;;17.95;47.58;99869.94;4975813;28;20022;-66
2021/09/21 13:53:47;;;;;;;6.30;5.70;;;;;;;17.30;47.65;99867.44;4988942;28;20026;-66
2021/09/21 13:56:13;;;;;;;7.18;5.40;;;;;;;17.05;47.85;99865.50;4981296;28;20346;-66
2021/09/21 13:58:38;;;;;;;6.03;5.43;;;;;;;17.21;47.48;99858.94;4985739;28;20030;-66
2021/09/21 14:01:04;;;;;;;7.07;5.32;;;;;;;17.35;47.49;99860.31;4980423;28;20531;-66
2021/09/21 14:03:31;;;;;;;7.00;5.35;;;;;;;17.57;47.09;99853.56;4977814;28;20276;-66
2021/09/21 14:05:57;;;;;;;6.95;5.78;;;;;;;17.63;46.80;99861.22;4975620;28;20019;-66
2021/09/21 14:08:22;;;;;;;13.50;5.65;;;;;;;17.33;48.33;99856.88;4975771;28;20027;-66
2021/09/21 14:10:48;;;;;;;6.18;5.18;;;;;;;16.54;49.79;99859.84;4977037;28;20054;-69
2021/09/21 14:13:14;;;;;;;10.23;5.60;;;;;;;16.63;49.82;99863.06;4978308;28;20431;-68
2021/09/21 14:15:39;;;;;;;6.55;5.15;;;;;;;16.94;48.87;99864.91;4977383;28;20030;-68
2021/09/21 14:18:05;;;;;;;5.95;5.38;;;;;;;16.93;48.71;99852.75;4981321;28;20025;-69
2021/09/21 14:20:30;;;;;;;8.82;5.63;;;;;;;16.83;49.32;99856.50;4979030;28;20475;-69
2021/09/21 14:22:55;;;;;;;9.02;5.50;;;;;;;16.77;50.21;99856.63;4980369;28;20041;-66
2021/09/21 14:25:22;;;;;;;9.70;5.10;;;;;;;16.49;50.62;99857.31;4975965;28;20045;-67
2021/09/21 14:27:48;;;;;;;8.50;4.82;;;;;;;16.91;50.89;99854.53;4980539;28;20432;-67
2021/09/21 14:30:17;;;;;;;7.05;4.78;;;;;;;17.11;49.53;99857.47;4977521;28;20022;-66
2021/09/21 14:32:43;;;;;;;7.80;5.35;;;;;;;16.59;50.78;99863.19;4985009;28;20030;-67
2021/09/21 14:35:11;;;;;;;8.75;5.38;;;;;;;16.02;51.40;99867.16;4982969;28;20026;-67
2021/09/21 14:37:37;;;;;;;10.45;5.32;;;;;;;16.21;51.94;99861.50;4978917;28;20019;-68
2021/09/21 14:40:04;;;;;;;7.82;5.72;;;;;;;16.40;50.51;99857.53;4982215;28;20022;-68
2021/09/21 14:42:30;;;;;;;37.03;22.55;;;;;;;16.98;50.72;99856.09;4976422;28;20428;-68
2021/09/21 14:44:55;;;;;;;8.55;5.88;;;;;;;16.99;50.36;99855.19;4979308;28;20027;-68
2021/09/21 14:47:20;;;;;;;6.40;4.63;;;;;;;17.38;49.34;99855.84;4974512;28;20026;-68
2021/09/21 14:49:46;;;;;;;10.77;4.75;;;;;;;17.32;49.21;99860.41;4981909;28;20026;-68
2021/09/21 14:52:11;;;;;;;6.18;4.65;;;;;;;17.23;49.15;99856.28;4978395;28;20077;-68
2021/09/21 14:54:36;;;;;;;8.10;4.82;;;;;;;16.84;50.33;99863.44;4980784;28;20114;-68
2021/09/21 14:57:03;;;;;;;8.60;4.93;;;;;;;16.32;51.16;99877.78;4983647;28;20072;-68
2021/09/21 14:59:29;;;;;;;10.45;6.60;;;;;;;16.63;50.47;99868.31;4986029;28;20415;-68
2021/09/21 15:01:54;;;;;;;10.38;5.85;;;;;;;16.45;50.63;99881.84;4977311;28;20030;-68
2021/09/21 15:04:19;;;;;;;5.97;4.65;;;;;;;16.03;51.32;99879.31;4978662;28;20018;-68
2021/09/21 15:06:45;;;;;;;7.90;5.53;;;;;;;16.27;51.50;99871.81;4978705;28;20025;-68
2021/09/21 15:09:10;;;;;;;7.80;4.95;;;;;;;16.82;50.76;99860.00;4976658;28;20397;-68
2021/09/21 15:11:37;;;;;;;5.50;4.47;;;;;;;17.11;50.36;99852.22;4980420;28;20396;-68
2021/09/21 15:14:02;;;;;;;5.13;4.63;;;;;;;17.10;49.35;99866.22;4975157;28;20026;-68
2021/09/21 15:16:28;;;;;;;5.22;4.72;;;;;;;16.97;50.56;99864.84;4977454;28;20026;-68
2021/09/21 15:18:53;;;;;;;6.90;4.63;;;;;;;17.06;51.22;99872.44;4974241;28;20464;-68
2021/09/21 15:21:18;;;;;;;5.38;4.88;;;;;;;17.30;49.66;99875.28;4976455;28;20074;-68
2021/09/21 15:23:44;;;;;;;5.47;4.95;;;;;;;16.57;52.14;99871.06;4985641;28;20026;-68
2021/09/21 15:26:10;;;;;;;11.68;5.22;;;;;;;16.70;51.06;99877.72;4984784;28;20022;-68
2021/09/21 15:28:38;;;;;;;6.78;5.10;;;;;;;16.42;51.54;99881.91;4982247;28;20985;-68
2021/09/21 15:31:05;;;;;;;9.50;5.88;;;;;;;16.24;51.32;99882.31;4982881;28;20139;-68
2021/09/21 15:33:31;;;;;;;11.35;5.05;;;;;;;16.31;51.24;99886.53;4980116;28;20034;-68
2021/09/21 15:35:57;;;;;;;9.25;5.20;;;;;;;16.09;53.57;99884.41;4982470;28;20434;-68
2021/09/21 15:38:23;;;;;;;6.03;4.60;;;;;;;16.14;54.20;99887.78;4979516;28;20026;-68
2021/09/21 15:40:52;;;;;;;6.03;4.90;;;;;;;16.16;53.29;99880.75;4982728;28;20057;-68
2021/09/21 15:43:18;;;;;;;6.07;4.75;;;;;;;16.41;51.11;99870.56;4988013;28;20025;-68
2021/09/21 15:45:44;;;;;;;7.13;5.45;;;;;;;16.41;51.11;99869.72;4982099;28;20054;-68